Time;durP1;ratioP1;P1;durP2;ratioP2;P2;SDS_P1;SDS_P2;PMS_P1;PMS_P2;Temp;Humidity;BMP_temperature;BMP_pressure;BME280_temperature;BME280_humidity;BME280_pressure;Samples;Min_cycle;Max_cycle;Signal;HPM_P1;HPM_P2
2022/10/21 00:01:15;;;;;;;8.67;6.27;;;;;;;;;;5096098;28;20577;-73
2022/10/21 00:03:42;;;;;;;9.80;6.87;;;;;;;;;;5107665;28;20221;-72
2022/10/21 00:06:10;;;;;;;8.57;5.83;;;;;;;;;;5106484;28;20214;-73
2022/10/21 00:08:37;;;;;;;10.97;6.30;;;;;;;;;;5107524;28;20209;-72
2022/10/21 00:11:06;;;;;;;10.20;6.43;;;;;;;;;;5101616;28;20217;-73
2022/10/21 00:13:35;;;;;;;8.40;6.67;;;;;;;;;;5100342;28;20213;-73
2022/10/21 00:16:03;;;;;;;14.33;7.43;;;;;;;;;;5106981;28;20225;-73
2022/10/21 00:18:31;;;;;;;10.87;6.17;;;;;;;;;;5097189;28;20569;-73
2022/10/21 00:20:58;;;;;;;8.80;6.27;;;;;;;;;;5096988;28;20201;-73
2022/10/21 00:23:25;;;;;;;7.50;6.03;;;;;;;;;;5095057;28;20210;-72
2022/10/21 00:25:56;;;;;;;15.77;6.73;;;;;;;;;;5095820;28;20233;-73
2022/10/21 00:28:23;;;;;;;9.60;6.37;;;;;;;;;;5106799;28;20237;-73
2022/10/21 00:30:51;;;;;;;10.63;6.40;;;;;;;;;;5100161;28;20202;-73
2022/10/21 00:33:18;;;;;;;9.47;6.20;;;;;;;;;;5100062;28;20202;-73
2022/10/21 00:35:50;;;;;;;9.10;6.57;;;;;;;;;;5106728;28;20232;-73
2022/10/21 00:38:17;;;;;;;10.13;6.67;;;;;;;;;;5095269;28;20217;-73
2022/10/21 00:40:44;;;;;;;11.43;5.83;;;;;;;;;;5092692;28;20205;-73
2022/10/21 00:43:12;;;;;;;8.70;6.10;;;;;;;;;;5106883;28;20562;-73
2022/10/21 00:45:39;;;;;;;8.80;5.80;;;;;;;;;;5106901;28;20198;-73
2022/10/21 00:48:10;;;;;;;9.17;6.40;;;;;;;;;;5096053;28;20213;-73
2022/10/21 00:50:38;;;;;;;8.80;6.17;;;;;;;;;;5088355;28;20202;-72
2022/10/21 00:53:07;;;;;;;8.77;6.27;;;;;;;;;;5086762;28;20218;-72
2022/10/21 00:55:35;;;;;;;8.60;6.22;;;;;;;;;;5091148;28;20230;-73
2022/10/21 00:58:03;;;;;;;9.43;5.97;;;;;;;;;;5107335;28;20205;-73
2022/10/21 01:00:30;;;;;;;7.25;5.82;;;;;;;;;;5104423;28;20291;-72
2022/10/21 01:02:57;;;;;;;8.60;5.57;;;;;;;;;;5099699;28;20206;-72
2022/10/21 01:05:26;;;;;;;9.90;5.43;;;;;;;;;;5090510;28;20198;-72
2022/10/21 01:07:53;;;;;;;7.80;5.97;;;;;;;;;;5099670;28;20221;-73
2022/10/21 01:10:20;;;;;;;9.52;6.22;;;;;;;;;;5103718;28;20210;-73
2022/10/21 01:12:57;;;;;;;9.73;6.17;;;;;;;;;;5086640;28;20736;-72
2022/10/21 01:15:26;;;;;;;8.47;6.10;;;;;;;;;;5091217;28;20216;-72
2022/10/21 01:18:00;;;;;;;9.20;6.67;;;;;;;;;;5108386;28;20224;-72
2022/10/21 01:20:38;;;;;;;9.07;6.23;;;;;;;;;;5109349;28;20212;-73
2022/10/21 01:23:22;;;;;;;10.27;6.93;;;;;;;;;;5090942;28;20213;-73
2022/10/21 01:26:03;;;;;;;8.20;5.80;;;;;;;;;;5056771;28;20202;-73
2022/10/21 01:28:37;;;;;;;15.67;6.27;;;;;;;;;;5106106;28;20234;-72
2022/10/21 01:31:10;;;;;;;6.83;5.50;;;;;;;;;;5091180;28;20734;-72
2022/10/21 01:33:40;;;;;;;11.93;6.80;;;;;;;;;;5095917;28;20206;-73
2022/10/21 01:36:11;;;;;;;9.53;6.40;;;;;;;;;;5091876;28;20237;-72
2022/10/21 01:38:42;;;;;;;15.87;7.20;;;;;;;;;;5110051;28;20216;-73
2022/10/21 01:41:12;;;;;;;12.10;6.37;;;;;;;;;;5106753;28;20216;-73
2022/10/21 01:43:41;;;;;;;11.33;7.20;;;;;;;;;;5095525;28;20209;-73
2022/10/21 01:46:12;;;;;;;15.60;7.63;;;;;;;;;;5091899;28;20206;-72
2022/10/21 01:48:45;;;;;;;13.67;6.53;;;;;;;;;;5110260;28;20210;-73
2022/10/21 01:51:13;;;;;;;9.97;5.83;;;;;;;;;;5108814;28;20204;-72
2022/10/21 01:53:42;;;;;;;14.83;6.83;;;;;;;;;;5110024;28;20201;-73
2022/10/21 01:56:10;;;;;;;14.03;7.20;;;;;;;;;;5106425;28;20245;-72
2022/10/21 01:58:38;;;;;;;13.73;5.87;;;;;;;;;;5110269;28;20216;-72
2022/10/21 02:01:06;;;;;;;11.07;7.23;;;;;;;;;;5099178;28;20210;-72
2022/10/21 02:03:36;;;;;;;13.53;7.67;;;;;;;;;;5102400;28;20252;-73
2022/10/21 02:06:03;;;;;;;37.00;13.67;;;;;;;;;;5099554;28;20205;-72
2022/10/21 02:08:31;;;;;;;28.30;12.10;;;;;;;;;;5089910;28;20213;-73
2022/10/21 02:11:00;;;;;;;29.90;11.03;;;;;;;;;;5098938;28;20567;-72
2022/10/21 02:13:30;;;;;;;18.23;8.53;;;;;;;;;;5109722;28;20668;-73
2022/10/21 02:16:00;;;;;;;13.65;8.25;;;;;;;;;;5101109;28;20438;-72
2022/10/21 02:18:27;;;;;;;9.63;6.57;;;;;;;;;;5093636;28;20698;-72
2022/10/21 02:20:57;;;;;;;11.40;7.20;;;;;;;;;;5097625;28;20198;-73
2022/10/21 02:23:27;;;;;;;11.93;6.97;;;;;;;;;;5096757;28;20301;-72
2022/10/21 02:25:54;;;;;;;11.05;7.15;;;;;;;;;;5109672;28;20244;-73
2022/10/21 02:28:21;;;;;;;16.30;7.20;;;;;;;;;;5109894;28;20244;-73
2022/10/21 02:30:53;;;;;;;13.45;7.25;;;;;;;;;;5102823;28;20297;-73
2022/10/21 02:33:24;;;;;;;20.08;6.97;;;;;;;;;;5109120;28;20229;-73
2022/10/21 02:35:55;;;;;;;19.85;7.22;;;;;;;;;;5104203;28;20221;-73
2022/10/21 02:38:25;;;;;;;13.75;8.13;;;;;;;;;;5109368;28;20209;-73
2022/10/21 02:40:54;;;;;;;14.77;8.70;;;;;;;;;;5109291;28;20205;-73
2022/10/21 02:43:22;;;;;;;10.73;6.80;;;;;;;;;;5090653;28;20599;-73
2022/10/21 02:45:49;;;;;;;10.75;7.10;;;;;;;;;;5099537;28;20715;-73
2022/10/21 02:48:17;;;;;;;9.33;6.43;;;;;;;;;;5090890;28;20214;-73
2022/10/21 02:50:44;;;;;;;9.00;6.00;;;;;;;;;;5088292;28;20210;-73
2022/10/21 02:53:11;;;;;;;10.80;6.90;;;;;;;;;;5098795;28;20213;-73
2022/10/21 02:55:40;;;;;;;6.43;5.63;;;;;;;;;;5093602;28;20553;-73
2022/10/21 02:58:07;;;;;;;7.13;5.53;;;;;;;;;;5101784;28;20234;-73
2022/10/21 03:00:34;;;;;;;11.37;6.73;;;;;;;;;;5088121;28;20209;-73
2022/10/21 03:03:01;;;;;;;12.43;7.13;;;;;;;;;;5099532;28;20202;-73
2022/10/21 03:05:29;;;;;;;11.40;7.13;;;;;;;;;;5088282;28;20211;-73
2022/10/21 03:07:56;;;;;;;13.27;6.10;;;;;;;;;;5103028;28;20205;-73
2022/10/21 03:10:23;;;;;;;11.73;6.13;;;;;;;;;;5106623;28;20209;-73
2022/10/21 03:12:51;;;;;;;13.03;6.83;;;;;;;;;;5093473;28;20627;-73
2022/10/21 03:15:18;;;;;;;10.00;6.03;;;;;;;;;;5088393;28;20225;-73
2022/10/21 03:17:45;;;;;;;9.77;6.17;;;;;;;;;;5100127;28;20727;-73
2022/10/21 03:20:12;;;;;;;12.77;6.53;;;;;;;;;;5108223;28;20217;-73
2022/10/21 03:22:39;;;;;;;10.13;6.50;;;;;;;;;;5106942;28;20210;-73
2022/10/21 03:25:07;;;;;;;11.77;6.57;;;;;;;;;;5108175;28;20707;-73
2022/10/21 03:27:34;;;;;;;11.00;6.57;;;;;;;;;;5103670;28;20230;-73
2022/10/21 03:30:03;;;;;;;13.47;7.17;;;;;;;;;;5108352;28;20228;-73
2022/10/21 03:32:30;;;;;;;9.40;6.33;;;;;;;;;;5097880;28;20292;-73
2022/10/21 03:34:57;;;;;;;8.73;5.77;;;;;;;;;;5104601;28;20207;-73
2022/10/21 03:37:24;;;;;;;11.67;6.63;;;;;;;;;;5104774;28;20221;-73
2022/10/21 03:39:51;;;;;;;12.30;6.37;;;;;;;;;;5107492;28;20638;-73
2022/10/21 03:42:18;;;;;;;11.23;6.77;;;;;;;;;;5108262;28;20613;-73
2022/10/21 03:44:45;;;;;;;10.70;6.33;;;;;;;;;;5107893;28;20677;-73
2022/10/21 03:47:14;;;;;;;7.63;6.13;;;;;;;;;;5103269;28;20976;-73
2022/10/21 03:49:41;;;;;;;14.67;6.53;;;;;;;;;;5108565;28;20679;-73
2022/10/21 03:52:08;;;;;;;15.00;6.27;;;;;;;;;;5101438;28;20212;-73
2022/10/21 03:54:35;;;;;;;14.90;6.23;;;;;;;;;;5108392;28;20224;-73
2022/10/21 03:57:02;;;;;;;19.60;6.50;;;;;;;;;;5105986;28;20225;-73
2022/10/21 03:59:29;;;;;;;11.70;6.73;;;;;;;;;;5108033;28;20229;-73
2022/10/21 04:01:56;;;;;;;12.80;7.00;;;;;;;;;;5096772;28;20205;-73
2022/10/21 04:04:25;;;;;;;35.40;7.20;;;;;;;;;;5103424;28;20277;-72
2022/10/21 04:06:54;;;;;;;22.03;7.13;;;;;;;;;;5088223;28;20210;-73
2022/10/21 04:09:21;;;;;;;16.10;6.40;;;;;;;;;;5091587;28;20659;-73
2022/10/21 04:11:48;;;;;;;12.47;6.93;;;;;;;;;;5096202;28;20221;-72
2022/10/21 04:14:16;;;;;;;16.23;6.33;;;;;;;;;;5087829;28;20217;-73
2022/10/21 04:16:43;;;;;;;11.83;6.73;;;;;;;;;;5093423;28;20250;-73
2022/10/21 04:19:13;;;;;;;10.33;6.77;;;;;;;;;;5101608;28;20232;-73
2022/10/21 04:21:41;;;;;;;16.73;5.83;;;;;;;;;;5098433;28;20201;-72
2022/10/21 04:24:09;;;;;;;8.73;6.13;;;;;;;;;;5104098;28;20206;-73
2022/10/21 04:26:36;;;;;;;10.73;6.10;;;;;;;;;;5102294;28;20214;-72
2022/10/21 04:29:03;;;;;;;11.60;5.60;;;;;;;;;;5106434;28;20206;-73
2022/10/21 04:31:30;;;;;;;12.43;6.33;;;;;;;;;;5098563;28;20311;-73
2022/10/21 04:33:57;;;;;;;8.77;5.80;;;;;;;;;;5101125;28;20213;-73
2022/10/21 04:36:24;;;;;;;19.30;6.53;;;;;;;;;;5100499;28;20202;-73
2022/10/21 04:38:52;;;;;;;11.10;5.90;;;;;;;;;;5095784;28;20221;-73
2022/10/21 04:41:19;;;;;;;12.97;6.30;;;;;;;;;;5102343;28;20213;-72
2022/10/21 04:43:46;;;;;;;7.67;5.67;;;;;;;;;;5089931;28;20194;-73
2022/10/21 04:46:15;;;;;;;10.77;6.50;;;;;;;;;;5096411;28;20794;-72
2022/10/21 04:48:42;;;;;;;9.70;6.33;;;;;;;;;;5087552;28;20259;-73
2022/10/21 04:51:09;;;;;;;20.70;5.67;;;;;;;;;;5104765;28;20202;-73
2022/10/21 04:53:36;;;;;;;9.30;6.10;;;;;;;;;;5094176;28;20214;-72
2022/10/21 04:56:05;;;;;;;13.27;6.90;;;;;;;;;;5094698;28;20437;-72
2022/10/21 04:58:32;;;;;;;9.33;6.27;;;;;;;;;;5099900;28;20214;-73
2022/10/21 05:00:59;;;;;;;9.97;6.60;;;;;;;;;;5098217;28;20568;-73
2022/10/21 05:03:26;;;;;;;8.13;5.60;;;;;;;;;;5091840;28;20695;-73
2022/10/21 05:05:54;;;;;;;12.93;6.60;;;;;;;;;;5090819;28;20202;-72
2022/10/21 05:08:21;;;;;;;11.60;6.00;;;;;;;;;;5103936;28;20194;-72
2022/10/21 05:10:48;;;;;;;11.97;6.47;;;;;;;;;;5091378;28;20210;-73
2022/10/21 05:13:16;;;;;;;15.03;6.60;;;;;;;;;;5105413;28;20201;-73
2022/10/21 05:15:43;;;;;;;9.82;6.28;;;;;;;;;;5103298;28;20205;-72
2022/10/21 05:18:10;;;;;;;9.63;6.10;;;;;;;;;;5097377;28;20304;-73
2022/10/21 05:20:37;;;;;;;10.97;5.77;;;;;;;;;;5100256;28;20214;-72
2022/10/21 05:23:04;;;;;;;7.57;5.27;;;;;;;;;;5096391;28;20205;-72
2022/10/21 05:25:31;;;;;;;9.30;6.07;;;;;;;;;;5097885;28;20206;-72
2022/10/21 05:27:58;;;;;;;12.13;5.77;;;;;;;;;;5096059;28;20225;-72
2022/10/21 05:30:27;;;;;;;11.60;5.57;;;;;;;;;;5095296;28;20201;-73
2022/10/21 05:32:54;;;;;;;9.07;6.37;;;;;;;;;;5093561;28;20229;-72
2022/10/21 05:35:21;;;;;;;11.77;6.63;;;;;;;;;;5095240;28;20228;-72
2022/10/21 05:37:48;;;;;;;14.07;6.43;;;;;;;;;;5089837;28;20234;-73
2022/10/21 05:40:15;;;;;;;9.30;5.60;;;;;;;;;;5105001;28;20880;-73
2022/10/21 05:42:42;;;;;;;9.97;6.70;;;;;;;;;;5101315;28;20214;-73
2022/10/21 05:45:10;;;;;;;13.97;6.63;;;;;;;;;;5092546;28;20208;-71
2022/10/21 05:47:38;;;;;;;9.97;5.87;;;;;;;;;;5089944;28;20224;-73
2022/10/21 05:50:31;;;;;;;9.73;5.97;;;;;;;;;;5101660;28;20210;-73
2022/10/21 05:52:58;;;;;;;12.33;6.80;;;;;;;;;;5074547;28;20202;-73
2022/10/21 05:55:26;;;;;;;13.47;7.13;;;;;;;;;;5106868;28;20229;-73
2022/10/21 05:57:53;;;;;;;10.37;6.87;;;;;;;;;;5103624;28;20225;-73
2022/10/21 06:00:20;;;;;;;14.40;6.90;;;;;;;;;;5098863;28;20202;-74
2022/10/21 06:02:48;;;;;;;8.30;5.37;;;;;;;;;;5087156;28;20207;-74
2022/10/21 06:05:15;;;;;;;8.37;5.67;;;;;;;;;;5100782;28;20209;-73
2022/10/21 06:07:42;;;;;;;14.97;6.47;;;;;;;;;;5110368;28;20209;-73
2022/10/21 06:10:11;;;;;;;9.47;5.90;;;;;;;;;;5100404;28;20300;-74
2022/10/21 06:12:38;;;;;;;7.70;5.67;;;;;;;;;;5110930;28;20266;-74
2022/10/21 06:15:05;;;;;;;9.87;5.80;;;;;;;;;;5109589;28;20216;-73
2022/10/21 06:17:32;;;;;;;9.60;5.27;;;;;;;;;;5105551;28;20225;-74
2022/10/21 06:20:01;;;;;;;9.63;5.77;;;;;;;;;;5110337;28;20202;-73
2022/10/21 06:22:28;;;;;;;7.73;5.20;;;;;;;;;;5105129;28;20241;-72
2022/10/21 06:24:55;;;;;;;8.33;5.60;;;;;;;;;;5098996;28;20212;-74
2022/10/21 06:27:22;;;;;;;7.07;5.57;;;;;;;;;;5108272;28;20226;-74
2022/10/21 06:29:50;;;;;;;7.50;5.60;;;;;;;;;;5094217;28;20409;-75
2022/10/21 06:32:17;;;;;;;8.33;5.57;;;;;;;;;;5089718;28;20662;-73
2022/10/21 06:34:44;;;;;;;7.43;5.30;;;;;;;;;;5089590;28;20206;-73
2022/10/21 06:37:12;;;;;;;6.63;4.90;;;;;;;;;;5089221;28;20206;-73
2022/10/21 06:39:39;;;;;;;7.53;5.17;;;;;;;;;;5106057;28;20202;-73
2022/10/21 06:42:06;;;;;;;8.87;5.23;;;;;;;;;;5109807;28;20214;-73
2022/10/21 06:44:33;;;;;;;6.97;4.97;;;;;;;;;;5109894;28;20217;-72
2022/10/21 06:47:00;;;;;;;8.07;5.37;;;;;;;;;;5109531;28;20202;-72
2022/10/21 06:49:27;;;;;;;9.07;5.03;;;;;;;;;;5102773;27;20259;-72
2022/10/21 06:51:54;;;;;;;8.03;5.67;;;;;;;;;;5097777;28;20611;-72
2022/10/21 06:54:23;;;;;;;6.63;4.90;;;;;;;;;;5098878;28;20207;-72
2022/10/21 06:56:50;;;;;;;10.17;5.83;;;;;;;;;;5096065;28;20631;-72
2022/10/21 06:59:17;;;;;;;7.27;5.50;;;;;;;;;;5097240;28;20233;-72
2022/10/21 07:01:44;;;;;;;12.80;5.10;;;;;;;;;;5087887;28;20684;-71
2022/10/21 07:04:11;;;;;;;6.43;5.03;;;;;;;;;;5088296;28;20219;-72
2022/10/21 07:06:38;;;;;;;6.77;4.70;;;;;;;;;;5088358;28;20210;-72
2022/10/21 07:09:06;;;;;;;9.47;4.80;;;;;;;;;;5106905;28;20953;-72
2022/10/21 07:11:35;;;;;;;5.63;4.83;;;;;;;;;;5108329;28;20571;-71
2022/10/21 07:14:02;;;;;;;7.13;5.20;;;;;;;;;;5108216;28;20339;-72
2022/10/21 07:16:30;;;;;;;8.17;4.63;;;;;;;;;;5095469;28;20199;-72
2022/10/21 07:18:57;;;;;;;10.23;5.00;;;;;;;;;;5089686;28;20217;-72
2022/10/21 07:21:25;;;;;;;6.37;5.03;;;;;;;;;;5096334;28;20198;-73
2022/10/21 07:23:53;;;;;;;7.87;4.73;;;;;;;;;;5098941;28;20206;-73
2022/10/21 07:26:20;;;;;;;7.17;4.80;;;;;;;;;;5096443;28;20205;-72
2022/10/21 07:28:49;;;;;;;5.93;4.77;;;;;;;;;;5088700;28;20202;-73
2022/10/21 07:31:17;;;;;;;6.97;5.03;;;;;;;;;;5088705;28;20683;-73
2022/10/21 07:33:44;;;;;;;7.85;5.75;;;;;;;;;;5104459;28;20208;-74
2022/10/21 07:36:12;;;;;;;7.70;5.17;;;;;;;;;;5108742;28;20664;-73
2022/10/21 07:38:42;;;;;;;8.43;5.05;;;;;;;;;;5106076;28;20230;-75
2022/10/21 07:41:14;;;;;;;6.53;4.97;;;;;;;;;;5102680;28;20251;-78
2022/10/21 07:43:41;;;;;;;8.37;5.70;;;;;;;;;;5109244;28;20840;-73
2022/10/21 07:46:09;;;;;;;7.43;4.93;;;;;;;;;;5106252;28;20201;-72
2022/10/21 07:48:36;;;;;;;8.57;5.47;;;;;;;;;;5088724;28;20228;-72
2022/10/21 07:51:04;;;;;;;7.97;5.20;;;;;;;;;;5089382;28;20218;-74
2022/10/21 07:53:31;;;;;;;7.37;5.13;;;;;;;;;;5108596;28;20209;-68
2022/10/21 07:56:02;;;;;;;9.80;6.00;;;;;;;;;;5108630;28;20209;-65
2022/10/21 07:58:30;;;;;;;6.25;5.05;;;;;;;;;;5107981;28;20221;-70
2022/10/21 08:00:58;;;;;;;7.20;5.83;;;;;;;;;;5103792;28;20207;-71
2022/10/21 08:03:27;;;;;;;6.80;5.43;;;;;;;;;;5088047;28;20227;-68
2022/10/21 08:05:54;;;;;;;9.40;5.87;;;;;;;;;;5100863;28;20213;-75
2022/10/21 08:08:21;;;;;;;7.57;5.70;;;;;;;;;;5105381;28;20206;-74
2022/10/21 08:10:48;;;;;;;8.52;5.90;;;;;;;;;;5109486;28;20213;-70
2022/10/21 08:13:16;;;;;;;8.13;4.70;;;;;;;;;;5092877;28;20206;-74
2022/10/21 08:15:43;;;;;;;7.33;5.43;;;;;;;;;;5102369;28;20203;-74
2022/10/21 08:18:10;;;;;;;6.23;5.23;;;;;;;;;;5100549;28;20224;-74
2022/10/21 08:20:40;;;;;;;8.85;5.32;;;;;;;;;;5092304;28;20215;-74
2022/10/21 08:23:07;;;;;;;10.60;5.87;;;;;;;;;;5090320;28;20214;-74
2022/10/21 08:25:34;;;;;;;6.40;4.83;;;;;;;;;;5090400;28;20214;-74
2022/10/21 08:28:01;;;;;;;6.45;5.13;;;;;;;;;;5087435;28;20241;-73
2022/10/21 08:30:30;;;;;;;7.95;5.30;;;;;;;;;;5096441;28;20691;-73
2022/10/21 08:32:58;;;;;;;8.25;4.82;;;;;;;;;;5093823;28;20896;-74
2022/10/21 08:35:25;;;;;;;9.48;4.82;;;;;;;;;;5084755;28;20229;-73
2022/10/21 08:37:53;;;;;;;6.47;4.77;;;;;;;;;;5087002;28;20210;-73
2022/10/21 08:40:21;;;;;;;10.25;5.68;;;;;;;;;;5086971;28;20750;-74
2022/10/21 08:42:48;;;;;;;8.15;5.63;;;;;;;;;;5087506;28;20213;-74
2022/10/21 08:45:18;;;;;;;8.52;4.72;;;;;;;;;;5105901;28;20233;-74
2022/10/21 08:47:47;;;;;;;12.60;5.72;;;;;;;;;;5104050;28;20209;-74
2022/10/21 08:50:15;;;;;;;7.35;5.38;;;;;;;;;;5098049;28;20221;-74
2022/10/21 08:52:43;;;;;;;8.45;5.10;;;;;;;;;;5106566;28;20735;-74
2022/10/21 08:55:15;;;;;;;11.23;5.07;;;;;;;;;;5103445;28;20616;-74
2022/10/21 08:57:43;;;;;;;7.35;4.97;;;;;;;;;;5107491;28;20722;-75
2022/10/21 09:00:15;;;;;;;6.38;4.80;;;;;;;;;;5099960;28;20219;-74
2022/10/21 09:03:03;;;;;;;8.18;4.78;;;;;;;;;;5087231;28;20294;-74
2022/10/21 09:05:36;;;;;;;7.07;4.82;;;;;;;;;;5081903;28;20305;-75
2022/10/21 09:08:11;;;;;;;5.90;4.55;;;;;;;;;;5094185;28;20202;-75
2022/10/21 09:10:50;;;;;;;8.20;5.15;;;;;;;;;;5094814;28;20663;-75
2022/10/21 09:13:19;;;;;;;10.27;5.30;;;;;;;;;;5090012;28;20209;-75
2022/10/21 09:15:51;;;;;;;9.38;5.63;;;;;;;;;;5093868;28;20209;-74
2022/10/21 09:18:25;;;;;;;6.75;4.90;;;;;;;;;;5089758;28;20323;-74
2022/10/21 09:20:55;;;;;;;7.93;4.68;;;;;;;;;;5096462;28;20209;-74
2022/10/21 09:23:37;;;;;;;5.13;4.40;;;;;;;;;;5105520;28;20206;-74
2022/10/21 09:26:08;;;;;;;7.28;4.47;;;;;;;;;;5095749;28;20210;-74
2022/10/21 09:28:37;;;;;;;7.63;5.13;;;;;;;;;;5086033;28;20238;-74
2022/10/21 09:31:04;;;;;;;5.87;4.47;;;;;;;;;;5095554;28;20213;-74
2022/10/21 09:33:33;;;;;;;7.40;4.70;;;;;;;;;;5092532;28;20213;-74
2022/10/21 09:36:03;;;;;;;9.43;4.63;;;;;;;;;;5094847;28;20205;-75
2022/10/21 09:38:36;;;;;;;5.55;4.82;;;;;;;;;;5096442;28;20225;-74
2022/10/21 09:41:06;;;;;;;7.43;5.63;;;;;;;;;;5110905;28;20217;-74
2022/10/21 09:43:34;;;;;;;9.15;5.00;;;;;;;;;;5110478;28;20766;-74
2022/10/21 09:46:01;;;;;;;9.90;5.70;;;;;;;;;;5110816;28;20640;-74
2022/10/21 09:48:31;;;;;;;6.78;4.07;;;;;;;;;;5110772;28;20221;-74
2022/10/21 09:50:59;;;;;;;7.72;5.28;;;;;;;;;;5110577;28;20223;-74
2022/10/21 09:53:29;;;;;;;12.00;4.55;;;;;;;;;;5110722;28;20660;-74
2022/10/21 09:56:02;;;;;;;7.05;4.32;;;;;;;;;;5109584;28;20701;-75
2022/10/21 09:58:30;;;;;;;4.38;3.95;;;;;;;;;;5099024;28;20333;-74
2022/10/21 10:00:58;;;;;;;7.57;4.00;;;;;;;;;;5090371;28;20949;-74
2022/10/21 10:03:29;;;;;;;5.55;4.15;;;;;;;;;;5100593;28;20228;-74
2022/10/21 10:05:57;;;;;;;4.45;4.05;;;;;;;;;;5110521;28;20303;-74
2022/10/21 10:08:31;;;;;;;6.05;4.03;;;;;;;;;;5108801;28;20197;-74
2022/10/21 10:11:03;;;;;;;5.78;4.25;;;;;;;;;;5104342;28;20205;-73
2022/10/21 10:13:30;;;;;;;4.45;3.83;;;;;;;;;;5096183;28;20245;-74
2022/10/21 10:16:12;;;;;;;4.20;3.83;;;;;;;;;;5099373;28;20210;-74
2022/10/21 10:18:39;;;;;;;6.80;3.63;;;;;;;;;;5109587;28;20217;-71
2022/10/21 10:21:07;;;;;;;3.33;3.00;;;;;;;;;;5109950;28;20880;-73
2022/10/21 10:23:42;;;;;;;4.78;3.60;;;;;;;;;;5103259;28;20202;-74
2022/10/21 10:26:09;;;;;;;4.03;3.63;;;;;;;;;;5086180;28;20297;-74
2022/10/21 10:28:37;;;;;;;2.45;2.25;;;;;;;;;;5101408;28;20987;-74
2022/10/21 10:31:05;;;;;;;3.38;3.00;;;;;;;;;;5107880;28;20205;-74
2022/10/21 10:33:34;;;;;;;4.22;2.67;;;;;;;;;;5108303;28;20213;-73
2022/10/21 10:36:03;;;;;;;2.90;2.63;;;;;;;;;;5108591;28;20209;-74
2022/10/21 10:38:32;;;;;;;2.58;2.38;;;;;;;;;;5100567;28;20607;-73
2022/10/21 10:41:07;;;;;;;3.92;2.47;;;;;;;;;;5097986;28;20202;-74
2022/10/21 10:43:35;;;;;;;2.63;2.35;;;;;;;;;;5090274;28;20198;-74
2022/10/21 10:46:03;;;;;;;2.25;2.15;;;;;;;;;;5089914;28;20217;-74
2022/10/21 10:48:35;;;;;;;3.03;2.83;;;;;;;;;;5099428;28;20206;-73
2022/10/21 10:56:19;;;;;;;2.05;1.88;;;;;;;;;;5419776;22;20265;-73
2022/10/21 10:58:48;;;;;;;2.30;2.10;;;;;;;;;;5025325;28;20323;-73
2022/10/21 11:01:18;;;;;;;1.88;1.83;;;;;;;;;;5017992;28;20204;-73
2022/10/21 11:03:51;;;;;;;1.60;1.60;;;;;;;;;;5024830;28;20201;-74
2022/10/21 11:06:22;;;;;;;2.22;1.65;;;;;;;;;;5016444;28;20355;-73
2022/10/21 11:08:50;;;;;;;4.50;1.40;;;;;;;;;;5028866;28;20227;-74
2022/10/21 11:11:22;;;;;;;1.73;1.63;;;;;;;;;;5020392;28;20243;-73
2022/10/21 11:13:49;;;;;;;3.15;1.58;;;;;;;;;;5028487;28;20246;-73
2022/10/21 11:16:25;;;;;;;1.92;1.83;;;;;;;;;;5028434;28;20242;-73
2022/10/21 11:19:00;;;;;;;1.92;1.80;;;;;;;;;;5008911;28;20229;-73
2022/10/21 11:21:35;;;;;;;2.25;1.90;;;;;;;;;;5012909;28;20203;-73
2022/10/21 11:24:23;;;;;;;1.88;1.70;;;;;;;;;;5008380;28;20221;-73
2022/10/21 11:26:54;;;;;;;1.92;1.83;;;;;;;;;;5026984;28;20220;-73
2022/10/21 11:29:28;;;;;;;2.13;1.90;;;;;;;;;;5014537;28;20234;-73
2022/10/21 11:32:00;;;;;;;2.10;2.00;;;;;;;;;;5015527;28;20210;-73
2022/10/21 11:34:31;;;;;;;5.68;2.03;;;;;;;;;;5028059;28;20273;-73
2022/10/21 11:37:01;;;;;;;4.63;1.80;;;;;;;;;;5027600;28;20219;-73
2022/10/21 11:39:34;;;;;;;1.73;1.63;;;;;;;;;;5027502;28;20232;-73
2022/10/21 11:42:07;;;;;;;2.63;2.13;;;;;;;;;;5023687;28;20216;-73
2022/10/21 11:44:47;;;;;;;2.42;2.22;;;;;;;;;;5008236;28;20205;-73
2022/10/21 11:47:17;;;;;;;1.60;1.60;;;;;;;;;;5008094;28;20212;-73
2022/10/21 11:49:52;;;;;;;1.67;1.60;;;;;;;;;;5027553;28;20764;-73
2022/10/21 11:52:26;;;;;;;2.05;1.95;;;;;;;;;;5024563;28;20203;-73
2022/10/21 11:55:03;;;;;;;1.85;1.67;;;;;;;;;;4999182;28;20233;-73
2022/10/21 11:57:34;;;;;;;3.55;2.08;;;;;;;;;;5007696;28;20406;-73
2022/10/21 12:00:06;;;;;;;2.55;1.98;;;;;;;;;;4994631;28;20226;-73
2022/10/21 12:02:41;;;;;;;2.15;2.05;;;;;;;;;;4998296;28;20217;-73
2022/10/21 12:05:15;;;;;;;1.67;1.58;;;;;;;;;;5007959;28;20290;-73
2022/10/21 12:07:50;;;;;;;1.52;1.42;;;;;;;;;;5007163;28;20211;-73
2022/10/21 12:10:30;;;;;;;5.20;2.30;;;;;;;;;;5004298;28;20212;-73
2022/10/21 12:13:00;;;;;;;1.35;1.35;;;;;;;;;;5007360;28;20220;-73
2022/10/21 12:15:30;;;;;;;1.20;1.20;;;;;;;;;;5007623;28;20205;-73
2022/10/21 12:17:57;;;;;;;1.20;1.20;;;;;;;;;;5007535;28;20722;-73
2022/10/21 12:20:27;;;;;;;1.23;1.13;;;;;;;;;;5006473;28;20224;-73
2022/10/21 12:22:58;;;;;;;1.00;1.00;;;;;;;;;;5007829;28;20213;-73
2022/10/21 12:25:29;;;;;;;1.10;1.00;;;;;;;;;;5006265;28;20204;-73
2022/10/21 12:28:00;;;;;;;0.98;0.98;;;;;;;;;;5005409;28;20205;-73
2022/10/21 12:30:31;;;;;;;0.85;0.85;;;;;;;;;;5006940;28;20201;-73
2022/10/21 12:33:08;;;;;;;3.03;1.17;;;;;;;;;;5018267;28;20220;-73
2022/10/21 12:35:44;;;;;;;0.80;0.80;;;;;;;;;;5007018;28;20201;-73
2022/10/21 12:38:29;;;;;;;0.90;0.77;;;;;;;;;;5005244;28;20200;-73
2022/10/21 12:41:17;;;;;;;0.82;0.82;;;;;;;;;;4999217;28;20235;-74
2022/10/21 12:43:52;;;;;;;0.90;0.90;;;;;;;;;;5001121;28;20209;-73
2022/10/21 12:46:24;;;;;;;1.00;0.82;;;;;;;;;;5006911;28;20239;-73
2022/10/21 12:48:51;;;;;;;0.70;0.70;;;;;;;;;;5003272;28;20209;-73
2022/10/21 12:51:22;;;;;;;1.13;0.93;;;;;;;;;;5006043;28;20571;-73
2022/10/21 12:53:51;;;;;;;0.82;0.82;;;;;;;;;;5006022;28;20228;-72
2022/10/21 12:56:27;;;;;;;0.82;0.82;;;;;;;;;;5003260;28;20247;-71
2022/10/21 12:58:57;;;;;;;5.22;1.10;;;;;;;;;;5004255;28;20215;-71
2022/10/21 13:01:36;;;;;;;1.67;0.50;;;;;;;;;;5003272;28;20844;-69
2022/10/21 13:04:03;;;;;;;0.82;0.82;;;;;;;;;;5004122;28;20947;-72
2022/10/21 13:06:50;;;;;;;0.70;0.70;;;;;;;;;;5005972;28;20212;-72
2022/10/21 13:09:34;;;;;;;0.70;0.70;;;;;;;;;;4993054;28;20743;-73
2022/10/21 13:12:13;;;;;;;0.35;0.35;;;;;;;;;;5006382;28;20211;-72
2022/10/21 13:14:41;;;;;;;0.50;0.50;;;;;;;;;;5008955;28;20632;-72
2022/10/21 13:17:15;;;;;;;0.60;0.60;;;;;;;;;;5010632;28;20209;-72
2022/10/21 13:19:42;;;;;;;0.60;0.60;;;;;;;;;;5008591;28;20596;-72
2022/10/21 13:22:15;;;;;;;0.70;0.70;;;;;;;;;;5008310;28;20216;-73
2022/10/21 13:24:43;;;;;;;0.50;0.50;;;;;;;;;;4999724;28;20209;-73
2022/10/21 13:27:27;;;;;;;1.48;0.63;;;;;;;;;;5005945;28;20689;-71
2022/10/21 13:29:54;;;;;;;0.70;0.60;;;;;;;;;;5008139;28;20588;-73
2022/10/21 13:32:26;;;;;;;2.17;0.88;;;;;;;;;;5007220;28;20224;-73
2022/10/21 13:34:58;;;;;;;0.50;0.50;;;;;;;;;;5009548;28;20217;-73
2022/10/21 13:37:28;;;;;;;1.65;0.50;;;;;;;;;;5008684;28;20212;-70
2022/10/21 13:39:56;;;;;;;1.30;0.60;;;;;;;;;;4996396;28;20245;-72
2022/10/21 13:42:23;;;;;;;1.95;0.55;;;;;;;;;;5006466;28;20212;-70
2022/10/21 13:44:51;;;;;;;1.95;0.82;;;;;;;;;;5009849;28;20205;-66
2022/10/21 13:47:27;;;;;;;0.60;0.60;;;;;;;;;;5009161;28;20205;-67
2022/10/21 13:49:55;;;;;;;0.70;0.70;;;;;;;;;;5008211;28;20303;-75
2022/10/21 13:52:27;;;;;;;0.50;0.50;;;;;;;;;;5009095;28;20208;-71
2022/10/21 13:54:59;;;;;;;0.47;0.47;;;;;;;;;;5008433;28;20225;-65
2022/10/21 13:57:28;;;;;;;1.00;0.40;;;;;;;;;;5009440;28;20205;-70
2022/10/21 14:00:02;;;;;;;0.68;0.68;;;;;;;;;;5009834;28;20221;-66
2022/10/21 14:02:29;;;;;;;0.57;0.57;;;;;;;;;;5002414;28;20766;-67
2022/10/21 14:04:56;;;;;;;0.60;0.60;;;;;;;;;;5005378;28;20209;-67
2022/10/21 14:07:23;;;;;;;0.60;0.60;;;;;;;;;;5007190;28;20216;-66
2022/10/21 14:09:52;;;;;;;0.93;0.70;;;;;;;;;;5007055;28;20204;-67
2022/10/21 14:12:23;;;;;;;0.90;0.90;;;;;;;;;;5002912;28;20197;-69
2022/10/21 14:14:50;;;;;;;0.93;0.70;;;;;;;;;;5009467;28;20209;-67
2022/10/21 14:17:18;;;;;;;2.60;0.52;;;;;;;;;;5007095;28;20592;-65
2022/10/21 14:19:48;;;;;;;0.60;0.60;;;;;;;;;;5007832;28;20229;-65
2022/10/21 14:22:19;;;;;;;0.80;0.80;;;;;;;;;;5009204;28;20419;-80
2022/10/21 14:24:47;;;;;;;0.75;0.75;;;;;;;;;;5008715;28;20303;-71
2022/10/21 14:27:15;;;;;;;0.85;0.50;;;;;;;;;;5007774;28;20221;-68
2022/10/21 14:29:44;;;;;;;0.45;0.45;;;;;;;;;;5008512;28;20698;-68
2022/10/21 14:32:13;;;;;;;0.70;0.70;;;;;;;;;;5009128;28;20244;-68
2022/10/21 14:34:54;;;;;;;2.85;0.50;;;;;;;;;;5008715;28;20209;-71
2022/10/21 14:37:22;;;;;;;0.52;0.50;;;;;;;;;;4997917;28;20704;-72
2022/10/21 14:39:49;;;;;;;0.50;0.50;;;;;;;;;;5002443;28;20221;-71
2022/10/21 14:42:17;;;;;;;0.50;0.50;;;;;;;;;;4997333;28;20224;-73
2022/10/21 14:44:46;;;;;;;1.08;0.45;;;;;;;;;;5008734;28;20212;-69
2022/10/21 14:47:18;;;;;;;0.40;0.40;;;;;;;;;;5008353;28;20689;-68
2022/10/21 14:49:46;;;;;;;1.25;0.50;;;;;;;;;;5006382;28;20208;-67
2022/10/21 14:52:18;;;;;;;0.50;0.50;;;;;;;;;;5008540;28;20263;-66
2022/10/21 14:54:46;;;;;;;0.50;0.50;;;;;;;;;;5008628;28;20232;-69
2022/10/21 14:57:23;;;;;;;4.57;0.30;;;;;;;;;;5008481;28;20316;-67